Tiempo atmosférico en la estación meteorológica de Barco De Avila, Ávila (1012 m.)

Fecha
DESCASC
Temp. máxima en grados centígrados (hora)
DESCASC
Temp. mínima en grados centígrados (hora)
DESCASC
Temp. media en grados centígrados
DESCASC
Racha de viento máxima en m/sg (hora)
DESCASC
Velocidad máxima media en intervalos de 10 minutos(hora)
DESCASC
Precipitaciones diarias en mm
DESCASC
Precipitaciones de 00:00 a 06:00 en mm
DESCASC
Precipitaciones de 06:00 a 12:00 en mm
DESCASC
Precipitaciones de 12:00 a 18:00 en mm
DESCASC
Precipitaciones de 18:00 a 24:00 en mm
DESCASC
10-12-2017 10.1 (00:20) 6.3 (08:50) 8.2 24.17 (22:10) 14.44 (23:30) 10.8 0 0 1.4 9.4
09-12-2017 10.6 (15:00) 8.2 (06:40) 9.4 8.33 (19:50) 3.61 (19:50) 0.4 0 0.2 0.2 0
08-12-2017 10.1 (15:30) 2.7 (01:50) 6.4 7.78 (23:59) 3.89 (23:50) 3.2 0 0.8 1.6 0.8
07-12-2017 13.5 (15:00) -2.8 (-00:0) 5.4 5.28 (16:30) 3.33 (03:10) 0 0 0 0 0
06-12-2017 12.3 (15:30) -5.6 (-00:0) 3.4 5 (14:20) 3.61 (06:00) 0 0 0 0 0
05-12-2017 11 (15:30) -6.7 (-00:0) 2.2 6.67 (23:30) 4.72 (23:30) 0 0 0 0 0
04-12-2017 8 (15:10) -7.7 (-00:0) 0.2 6.67 (15:10) 4.17 (09:30) 0 0 0 0 0
03-12-2017 5.2 (15:00) -5.5 (-00:0) -0.2 7.22 (13:40) 4.17 (16:10) 0 0 0 0 0
02-12-2017 4 (14:50) -8.4 (-00:0) -2.2 6.39 (13:50) 3.33 (13:40) 0 0 0 0 0
01-12-2017 5.5 (14:20) -7.5 (-00:0) -1 9.44 (14:20) 4.72 (15:20) 1.4 0 0 1.4 0
30-11-2017 5.5 (15:30) -6.8 (-00:0) -0.7 9.72 (13:30) 4.72 (12:30) 0.2 0 0.2 0 0
29-11-2017 7.6 (14:30) -2.9 (-00:0) 2.3 7.78 (15:10) 4.72 (06:30) 0.2 0 0.2 0 0
28-11-2017 9.6 (13:30) 4.1 (00:00) 6.9 6.11 (16:20) 3.61 (16:20) 6.6 0 0 3.8 2.8
27-11-2017 14.2 (15:50) -3.4 (-00:0) 5.4 6.67 (17:10) 3.61 (18:10) 0.6 0 0.6 0 0
26-11-2017 12 (15:20) -1.7 (-00:0) 5.1 6.11 (13:00) 3.89 (16:20) 0 0 0 0 0
25-11-2017 12.7 (11:50) 5.8 (00:00) 9.3 8.06 (01:10) 4.72 (02:10) 0 0 0 0 0
24-11-2017 13.4 (14:50) 8.8 (00:00) 11.1 13.89 (02:40) 9.72 (02:20) 0.6 0.2 0.4 0 0
23-11-2017 16 (14:50) 8.4 (00:00) 12.2 15.28 (22:20) 10.28 (22:10) 0.2 0 0 0 0.2
22-11-2017 17 (13:20) -1.2 (-00:0) 7.9 11.11 (15:20) 7.5 (15:40) 0 0 0 0 0
21-11-2017 17.3 (14:10) -2.6 (-00:0) 7.3 8.33 (14:20) 5.56 (15:10) 0 0 0 0 0
20-11-2017 18.8 (15:50) -2.3 (-00:0) 8.2 6.39 (17:50) 3.89 (02:20) 0 0 0 0 0
19-11-2017 18 (15:30) -1.9 (-00:0) 8.1 6.67 (03:40) 3.61 (04:20) 0 0 0 0 0
18-11-2017 17.2 (15:30) -1.1 (-00:0) 8.1 6.11 (16:20) 3.89 (08:30) 0 0 0 0 0
17-11-2017 19 (15:30) -1.1 (-00:0) 8.9 5.28 (00:10) 3.61 (00:50) 0 0 0 0 0
16-11-2017 18.1 (15:10) -2.8 (-00:0) 7.7 5.83 (14:10) 3.33 (22:00) 0 0 0 0 0
15-11-2017 16.5 (15:40) -3.2 (-00:0) 6.6 5.28 (13:20) 2.78 (14:10) 0 0 0 0 0

Gráficas

Temp. máximas Temp. mínimas Temp. medias Precipitaciones Rachas de viento máximas Velocidades máximas media en intervalos de 10 minutos

Datos horarios

Fecha y hora oficial Temperatura (ºC) Velocidad del viento (km/h) Dirección del viento Racha (km/h) Dirección de racha Precipitación (mm) Presión (hPa) Tendencia (hPa) Humedad (%)
2017-12-14 23:00:00 9 10 Oeste 27 Oeste 0 -- -- 86
2017-12-14 22:00:00 8.9 14 Oeste 23 Oeste 0 -- -- 89
2017-12-14 21:00:00 9 11 Oeste 21 Oeste 0 -- -- 88
2017-12-14 20:00:00 8.9 3 Sudoeste 9 Sudoeste 0 -- -- 87
2017-12-14 19:00:00 9.1 5 Sudoeste 10 Oeste 0 -- -- 88
2017-12-14 18:00:00 10 4 Noroeste 27 Oeste 0 -- -- 80
2017-12-14 17:00:00 10.2 17 Oeste 27 Oeste 0 -- -- 81
2017-12-14 16:00:00 10.7 15 Oeste 27 Oeste 0 -- -- 78
2017-12-14 15:00:00 10.9 13 Oeste 33 Oeste 0 -- -- 78
2017-12-14 14:00:00 10.4 21 Oeste 31 Oeste 0 -- -- 81
2017-12-14 13:00:00 12.2 15 Oeste 31 Oeste 0 -- -- 72
2017-12-14 12:00:00 12.8 13 Oeste 26 Noroeste 0 -- -- 72
2017-12-14 11:00:00 6.7 0 Calma 6 Noroeste 0 -- -- 95
2017-12-14 10:00:00 4.1 4 Sudoeste 12 Noroeste 0 -- -- 97
2017-12-14 09:00:00 2.8 4 Sudeste 12 Oeste 0 -- -- 95
2017-12-14 08:00:00 3.2 7 Norte 12 Noroeste 0 -- -- 96
2017-12-14 07:00:00 3.2 6 Sur 14 Oeste 0 -- -- 94
2017-12-14 06:00:00 3.5 6 Sudoeste 10 Sudoeste 0 -- -- 95
2017-12-14 05:00:00 2.9 3 Sudoeste 9 Oeste 0 -- -- 93
2017-12-14 04:00:00 3.5 3 Sudoeste 17 Oeste 0 -- -- 93
2017-12-14 03:00:00 3.7 5 Nordeste 12 Noroeste 0 -- -- 92
2017-12-14 02:00:00 4.1 7 Sudoeste 13 Oeste 0 -- -- 90
2017-12-14 01:00:00 3.4 4 Sudoeste 14 Sudoeste 0 -- -- 90
2017-12-14 00:00:00 3.5 4 Sudoeste 10 Oeste 0 -- -- 89
2017-12-13 23:00:00 3.2 6 Sudoeste 15 Oeste 0 -- -- 90
2017-12-13 22:00:00 3.7 5 Sudoeste 12 Sudoeste 0 -- -- 89
2017-12-13 21:00:00 3.2 4 Sudoeste 9 Noroeste 0 -- -- 92
2017-12-13 20:00:00 3.8 4 Noroeste 8 Norte 0 -- -- 85
2017-12-13 19:00:00 4.6 5 Oeste 12 Oeste 0 -- -- 81
2017-12-13 18:00:00 6.5 12 Oeste 27 Oeste 0 -- -- 77
2017-12-13 17:00:00 8.4 11 Oeste 26 Oeste 0 -- -- 70
2017-12-13 16:00:00 8.8 13 Noroeste 30 Oeste 0 -- -- 64
2017-12-13 15:00:00 10.6 10 Oeste 21 Oeste 0 -- -- 64
2017-12-13 14:00:00 10.2 8 Oeste 21 Oeste 0 -- -- 59
2017-12-13 13:00:00 8.2 2 Noroeste 8 Oeste 0 -- -- 68
2017-12-13 12:00:00 5 4 Sudoeste 18 Sudoeste 0 -- -- 72
2017-12-13 11:00:00 0.9 10 Sudoeste 13 Sudoeste 0 -- -- 82
2017-12-13 10:00:00 -0.7 0 Calma 9 Nordeste 0 -- -- 84
2017-12-13 09:00:00 -0.9 6 Noroeste 16 Sudoeste 0 -- -- 83
2017-12-13 08:00:00 -1.3 6 Oeste 16 Oeste 0 -- -- 84
2017-12-13 07:00:00 -2.2 10 Sudoeste 13 Sudoeste 0 -- -- 86
2017-12-13 06:00:00 -2.7 3 Sudoeste 13 Sudoeste 0 -- -- 90
2017-12-13 05:00:00 -3 8 Sudoeste 14 Sur 0 -- -- 87
2017-12-13 04:00:00 -3.2 9 Sudoeste 14 Sudoeste 0 -- -- 90
2017-12-13 03:00:00 -3 10 Sudoeste 13 Sudoeste 0 -- -- 90
2017-12-13 02:00:00 -2.9 9 Sudoeste 15 Sudoeste 0 -- -- 92
2017-12-13 01:00:00 -2.4 10 Oeste 15 Sudoeste 0 -- -- 90
2017-12-13 00:00:00 -1.9 9 Sudoeste 13 Oeste 0 -- -- 90
2017-12-12 23:00:00 -1.5 9 Sudoeste 13 Sudoeste 0 -- -- 90
2017-12-12 22:00:00 -1.2 7 Oeste 10 Oeste 0 -- -- 90
2017-12-12 21:00:00 -0.9 6 Oeste 9 Oeste 0 -- -- 89
2017-12-12 20:00:00 0 4 Oeste 6 Oeste 0 -- -- 86
2017-12-12 19:00:00 1.1 0 Calma 6 Sudoeste 0 -- -- 80
2017-12-12 18:00:00 3.8 3 Noroeste 9 Norte 0 -- -- 69
2017-12-12 17:00:00 5.3 6 Norte 14 Noroeste 0 -- -- 60
2017-12-12 16:00:00 5.6 5 Norte 13 Norte 0 -- -- 60
2017-12-12 15:00:00 5.4 4 Norte 12 Noroeste 0 -- -- 60
2017-12-12 14:00:00 4.5 5 Nordeste 13 Norte 0 -- -- 67
2017-12-12 13:00:00 3.7 6 Norte 14 Norte 0 -- -- 71
2017-12-12 12:00:00 2.6 4 Nordeste 8 Nordeste 0 -- -- 77
2017-12-12 11:00:00 -0.1 3 Norte 5 Norte 0 -- -- 87
2017-12-12 10:00:00 -2.2 4 Oeste 6 Sudoeste 0 -- -- 94
2017-12-12 09:00:00 -4.5 4 Sudeste 5 Oeste 0 -- -- 93
2017-12-12 08:00:00 -4 0 Calma 6 Oeste 0 -- -- 92
2017-12-12 07:00:00 -3.4 0 Calma 4 Sur 0 -- -- 93
2017-12-12 06:00:00 -3 0 Calma 4 Noroeste 0 -- -- 92
2017-12-12 05:00:00 -2.8 0 Calma 9 Este 0 -- -- 92
2017-12-12 04:00:00 -3 7 Este 11 Este 0 -- -- 92
2017-12-12 03:00:00 -2.3 0 Calma 5 Noroeste 0 -- -- 90
2017-12-12 02:00:00 -1.4 2 Sur 10 Norte 0 -- -- 89
2017-12-12 01:00:00 -0.7 5 Norte 12 Norte 0 -- -- 88
2017-12-12 00:00:00 -0.5 4 Nordeste 8 Nordeste 0 -- -- 89
2017-12-11 23:00:00 0.1 2 Este 21 Noroeste 0 -- -- 88
2017-12-11 22:00:00 1.5 9 Norte 26 Norte 0 -- -- 84
2017-12-11 21:00:00 2.2 13 Norte 31 Norte 0 -- -- 88
2017-12-11 20:00:00 2.4 7 Norte 28 Norte 0 -- -- 87
2017-12-11 19:00:00 2.4 6 Norte 15 Norte 0.2 -- -- 89
2017-12-11 18:00:00 2.2 5 Nordeste 18 Noroeste 0.8 -- -- 92
2017-12-11 17:00:00 3.2 5 Norte 17 Oeste 0.4 -- -- 89
2017-12-11 16:00:00 3.6 9 Oeste 25 Oeste 0 -- -- 87
2017-12-11 15:00:00 5 11 Oeste 27 Oeste 0 -- -- 77
2017-12-11 14:00:00 6 14 Oeste 21 Oeste 0 -- -- 67
2017-12-11 13:00:00 5.8 4 Noroeste 14 Sudoeste 0 -- -- 63
2017-12-11 12:00:00 3.7 7 Noroeste 21 Oeste 0 -- -- 69
2017-12-11 11:00:00 3.1 10 Oeste 22 Noroeste 0 -- -- 76
2017-12-11 10:00:00 3.1 11 Oeste 40 Oeste 0 -- -- 76
2017-12-11 09:00:00 3.2 18 Noroeste 40 Oeste 0.2 -- -- 78
2017-12-11 08:00:00 3.2 18 Oeste 31 Oeste 0 -- -- 83
2017-12-11 07:00:00 2.9 9 Sudoeste 22 Sudoeste 0.2 -- -- 90
2017-12-11 06:00:00 3.2 7 Oeste 26 Sudoeste 0 -- -- 90
2017-12-11 05:00:00 3.4 4 Sudoeste 24 Sur 1.2 -- -- 89
2017-12-11 04:00:00 4.3 12 Sudoeste 32 Sudoeste 3.8 -- -- 87
2017-12-11 03:00:00 5.4 6 Oeste 67 Oeste 5.4 -- -- 88
2017-12-11 02:00:00 8 27 Oeste 82 Sudoeste 7 -- -- 76
2017-12-11 01:00:00 8.7 40 Sudoeste 74 Sudoeste 5 -- -- 90
2017-12-11 00:00:00 8.1 47 Sudoeste 85 Sudoeste 3.8 -- -- 88
2017-12-10 23:00:00 8.5 39 Sudoeste 87 Sudoeste 2 -- -- 86
2017-12-10 22:00:00 8.3 44 Sudoeste 77 Sudoeste 2.2 -- -- 86
2017-12-10 21:00:00 8.2 38 Sudoeste 74 Sur 0.2 -- -- 87
2017-12-10 20:00:00 8.4 34 Sudoeste 77 Sudoeste 1.2 -- -- 82
2017-12-10 19:00:00 8.3 31 Sur 63 Sur 0 -- -- 86
2017-12-10 18:00:00 8.7 30 Sur 67 Sudoeste 0.4 -- -- 82
2017-12-10 17:00:00 8.7 30 Sudoeste 59 Sudoeste 0.6 -- -- 88
2017-12-10 16:00:00 9.5 22 Sudoeste 50 Sudoeste 0 -- -- 87
2017-12-10 15:00:00 9.4 23 Sudoeste 45 Sudoeste 0.4 -- -- 88
2017-12-10 14:00:00 9.2 26 Sudoeste 50 Sudoeste 0 -- -- 87
2017-12-10 13:00:00 9.3 35 Sudoeste 57 Sudoeste 0 -- -- 84
2017-12-10 12:00:00 8.5 24 Sudoeste 46 Sudoeste 0 -- -- 87
2017-12-10 11:00:00 8 22 Sudoeste 45 Sudoeste 0 -- -- 86
2017-12-10 10:00:00 8.4 13 Sudoeste 36 Sur 0 -- -- 81
2017-12-10 09:00:00 6.4 5 Sur 13 Sudoeste 0 -- -- 86
2017-12-10 08:00:00 7.9 6 Oeste 18 Sur 0 -- -- 75
2017-12-10 07:00:00 8.3 6 Sudoeste 21 Oeste 0 -- -- 74
2017-12-10 06:00:00 8.8 7 Oeste 25 Sudoeste 0 -- -- 73
2017-12-10 05:00:00 8.5 3 Sudoeste 12 Este 0 -- -- 77
2017-12-10 04:00:00 8.7 2 Sudoeste 21 Oeste 0 -- -- 76
2017-12-10 03:00:00 9.1 8 Noroeste 14 Noroeste 0 -- -- 79
2017-12-10 02:00:00 8.9 2 Sudoeste 6 Sur 0 -- -- 83
2017-12-10 01:00:00 9.8 0 Calma 19 Noroeste 0 -- -- 78
2017-12-10 00:00:00 9.7 6 Noroeste 16 Oeste 0 -- -- 77
2017-12-09 23:00:00 8.9 3 Este 12 Nordeste 0 -- -- 84
2017-12-09 22:00:00 9.3 5 Norte 15 Este 0 -- -- 82
2017-12-09 21:00:00 9.9 4 Norte 22 Noroeste 0 -- -- 75
2017-12-09 20:00:00 10 10 Noroeste 30 Noroeste 0 -- -- 77
2017-12-09 19:00:00 9.2 3 Nordeste 7 Este 0 -- -- 88
2017-12-09 18:00:00 9.6 3 Este 9 Nordeste 0 -- -- 86
2017-12-09 17:00:00 10.4 4 Norte 19 Noroeste 0 -- -- 81
2017-12-09 16:00:00 10.5 4 Noroeste 17 Norte 0 -- -- 83
2017-12-09 15:00:00 10.6 5 Noroeste 13 Norte 0 -- -- 85
2017-12-09 14:00:00 9.9 5 Nordeste 9 Nordeste 0 -- -- 91
2017-12-09 13:00:00 9.1 5 Nordeste 11 Nordeste 0.2 -- -- 95
2017-12-09 12:00:00 8.9 5 Este 9 Nordeste 0.2 -- -- 95
2017-12-09 11:00:00 8.5 5 Nordeste 10 Este 0 -- -- 95
2017-12-09 10:00:00 8.3 4 Nordeste 9 Oeste 0 -- -- 94
2017-12-09 09:00:00 8.3 3 Nordeste 7 Nordeste 0 -- -- 93
2017-12-09 08:00:00 8.4 3 Nordeste 9 Norte 0 -- -- 93
2017-12-09 07:00:00 8.2 3 Norte 6 Norte 0 -- -- 94
2017-12-09 06:00:00 8.4 2 Nordeste 6 Norte 0 -- -- 93
2017-12-09 05:00:00 8.6 3 Nordeste 14 Norte 0 -- -- 92
2017-12-09 04:00:00 8.8 6 Norte 13 Norte 0 -- -- 93
2017-12-09 03:00:00 8.9 4 Norte 10 Nordeste 0 -- -- 94
2017-12-09 02:00:00 9.1 5 Norte 21 Norte 0 -- -- 93
2017-12-09 01:00:00 9.4 8 Norte 22 Norte 0 -- -- 92
2017-12-09 00:00:00 9.7 13 Noroeste 28 Norte 0 -- -- 91
2017-12-08 23:00:00 9.8 12 Noroeste 27 Noroeste 0 -- -- 92
2017-12-08 22:00:00 10.1 9 Noroeste 18 Noroeste 0 -- -- 91
2017-12-08 21:00:00 9.8 4 Nordeste 17 Noroeste 0.4 -- -- 94
2017-12-08 20:00:00 9.9 6 Noroeste 15 Norte 0.2 -- -- 93
2017-12-08 19:00:00 9.6 6 Nordeste 17 Nordeste 0.2 -- -- 95
2017-12-08 18:00:00 9.6 7 Nordeste 14 Nordeste 0.2 -- -- 94
2017-12-08 17:00:00 9.9 6 Nordeste 12 Nordeste 0.2 -- -- 93
2017-12-08 16:00:00 10 5 Norte 12 Nordeste 0.2 -- -- 91
2017-12-08 15:00:00 9.5 6 Nordeste 9 Nordeste 0 -- -- 94
2017-12-08 14:00:00 8.4 4 Nordeste 9 Norte 0.2 -- -- 94
2017-12-08 13:00:00 7.6 0 Calma 4 Este 0.8 -- -- 94
2017-12-08 12:00:00 6.5 3 Este 6 Oeste 0.2 -- -- 94
2017-12-08 11:00:00 5.5 3 Noroeste 10 Noroeste 0.2 -- -- 94
2017-12-08 10:00:00 4.1 0 Calma 9 Sudoeste 0.4 -- -- 91
2017-12-08 09:00:00 4.4 2 Sudoeste 5 Este 0 -- -- 83
2017-12-08 08:00:00 4.5 2 Sudeste 8 Este 0 -- -- 68
2017-12-08 07:00:00 4.1 3 Sudoeste 7 Oeste 0 -- -- 64
2017-12-08 06:00:00 4.5 2 Nordeste 6 Sudoeste 0 -- -- 60
2017-12-08 05:00:00 4.1 3 Sudeste 9 Oeste 0 -- -- 60
2017-12-08 04:00:00 3.9 5 Oeste 10 Oeste 0 -- -- 58
2017-12-08 03:00:00 3 6 Oeste 9 Sudoeste 0 -- -- 62
2017-12-08 02:00:00 2.8 3 Este 17 Sudoeste 0 -- -- 60
2017-12-08 01:00:00 3.6 10 Sudoeste 13 Sudoeste 0 -- -- 58
2017-12-08 00:00:00 4.1 7 Oeste 15 Sudoeste 0 -- -- 56
2017-12-07 23:00:00 3.9 6 Oeste 10 Oeste 0 -- -- 56
2017-12-07 22:00:00 4.3 4 Noroeste 8 Noroeste 0 -- -- 52
2017-12-07 21:00:00 4.1 2 Sudeste 6 Este 0 -- -- 51
2017-12-07 20:00:00 5.5 4 Este 8 Oeste 0 -- -- 46
2017-12-07 19:00:00 7.1 5 Oeste 8 Nordeste 0 -- -- 41
2017-12-07 18:00:00 9.3 5 Este 14 Norte 0 -- -- 32
2017-12-07 17:00:00 11 7 Norte 19 Norte 0 -- -- 26
2017-12-07 16:00:00 12.7 7 Norte 19 Norte 0 -- -- 23
2017-12-07 15:00:00 13.5 6 Norte 15 Norte 0 -- -- 20
2017-12-07 14:00:00 12.6 6 Nordeste 12 Nordeste 0 -- -- 22
2017-12-07 13:00:00 11.2 3 Nordeste 11 Nordeste 0 -- -- 26
2017-12-07 12:00:00 7.6 6 Nordeste 12 Nordeste 0 -- -- 36
2017-12-07 11:00:00 2.9 5 Oeste 10 Sudoeste 0 -- -- 55
2017-12-07 10:00:00 -0.1 8 Sudoeste 15 Sudoeste 0 -- -- 63
2017-12-07 09:00:00 -0.8 8 Oeste 11 Oeste 0 -- -- 68
2017-12-07 08:00:00 -1.4 4 Sudoeste 7 Sudoeste 0 -- -- 71
2017-12-07 07:00:00 -1 3 Sudoeste 14 Sudoeste 0 -- -- 67
2017-12-07 06:00:00 -1.8 8 Sudoeste 10 Sudoeste 0 -- -- 70
2017-12-07 05:00:00 -1.6 5 Este 9 Este 0 -- -- 72
2017-12-07 04:00:00 -1.5 5 Sudoeste 17 Sudoeste 0 -- -- 67
2017-12-07 03:00:00 -1.2 11 Sudoeste 17 Oeste 0 -- -- 62
2017-12-07 02:00:00 -2.2 7 Sudoeste 15 Sudoeste 0 -- -- 69
2017-12-07 01:00:00 -2.8 8 Sudoeste 14 Oeste 0 -- -- 71
2017-12-07 00:00:00 -2.2 7 Sudoeste 15 Sudoeste 0 -- -- 68
2017-12-06 23:00:00 -1.7 11 Sudoeste 15 Oeste 0 -- -- 67
2017-12-06 22:00:00 -1.4 7 Sudoeste 16 Oeste 0 -- -- 67
2017-12-06 21:00:00 -0.7 12 Sudoeste 15 Sudoeste 0 -- -- 65
2017-12-06 20:00:00 0.4 7 Sudoeste 9 Oeste 0 -- -- 63
2017-12-06 19:00:00 3.5 3 Sudoeste 7 Oeste 0 -- -- 54
2017-12-06 18:00:00 8.2 6 Norte 10 Norte 0 -- -- 39
2017-12-06 17:00:00 10.5 9 Norte 14 Norte 0 -- -- 34
2017-12-06 16:00:00 12 7 Norte 16 Norte 0 -- -- 29
2017-12-06 15:00:00 12.2 7 Norte 18 Norte 0 -- -- 28
2017-12-06 14:00:00 11.3 9 Norte 17 Norte 0 -- -- 27
2017-12-06 13:00:00 10.1 4 Nordeste 6 Nordeste 0 -- -- 31
2017-12-06 12:00:00 7.2 2 Este 8 Sudoeste 0 -- -- 45
2017-12-06 11:00:00 2.8 6 Sudoeste 13 Sudoeste 0 -- -- 52
2017-12-06 10:00:00 -1.8 9 Sudoeste 17 Oeste 0 -- -- 65
2017-12-06 09:00:00 -5.3 10 Oeste 17 Sudoeste 0 -- -- 75
2017-12-06 08:00:00 -5.4 12 Sudoeste 17 Sudoeste 0 -- -- 75
2017-12-06 07:00:00 -4.8 10 Sudoeste 16 Sudoeste 0 -- -- 74
2017-12-06 06:00:00 -4.3 13 Sudoeste 17 Sudoeste 0 -- -- 73
2017-12-06 05:00:00 -4.9 10 Sudoeste 15 Sudoeste 0 -- -- 77
2017-12-06 04:00:00 -4.7 8 Oeste 15 Sudoeste 0 -- -- 78
2017-12-06 03:00:00 -4.8 8 Sudoeste 13 Oeste 0 -- -- 79
2017-12-06 02:00:00 -3.3 10 Sudoeste 16 Sudoeste 0 -- -- 73
2017-12-06 01:00:00 -3.1 10 Sudoeste 16 Sudoeste 0 -- -- 75
2017-12-06 00:00:00 -2.8 8 Oeste 24 Sudoeste 0 -- -- 76
2017-12-05 23:00:00 -1.9 13 Sudoeste 19 Sudoeste 0 -- -- 73
2017-12-05 22:00:00 -2.1 11 Sudoeste 20 Sudoeste 0 -- -- 76
2017-12-05 21:00:00 -1.3 8 Sudoeste 13 Sudoeste 0 -- -- 73
2017-12-05 20:00:00 0 10 Sudoeste 14 Sudoeste 0 -- -- 68
2017-12-05 19:00:00 2.2 4 Oeste 8 Norte 0 -- -- 61
2017-12-05 18:00:00 6.8 7 Norte 15 Norte 0 -- -- 50
2017-12-05 17:00:00 9.6 9 Norte 18 Norte 0 -- -- 39
2017-12-05 16:00:00 10.9 8 Norte 18 Norte 0 -- -- 35
2017-12-05 15:00:00 10.8 10 Norte 20 Norte 0 -- -- 34
2017-12-05 14:00:00 10.2 6 Norte 12 Nordeste 0 -- -- 37
2017-12-05 13:00:00 8.4 4 Nordeste 8 Nordeste 0 -- -- 38
2017-12-05 12:00:00 5.6 5 Este 8 Este 0 -- -- 54
2017-12-05 11:00:00 1.6 4 Sur 13 Sudoeste 0 -- -- 68
2017-12-05 10:00:00 -2.9 7 Sudoeste 11 Sudoeste 0 -- -- 77
2017-12-05 09:00:00 -6.3 7 Oeste 13 Sudoeste 0 -- -- 84
2017-12-05 08:00:00 -6.4 8 Sudoeste 13 Sudoeste 0 -- -- 84
2017-12-05 07:00:00 -6.1 5 Sudoeste 13 Sudoeste 0 -- -- 85
2017-12-05 06:00:00 -5.2 9 Sudoeste 16 Sudoeste 0 -- -- 82
2017-12-05 05:00:00 -5 9 Sudoeste 14 Sudoeste 0 -- -- 83
2017-12-05 04:00:00 -5 10 Sudoeste 14 Sudoeste 0 -- -- 87
2017-12-05 03:00:00 -4.4 10 Sudoeste 14 Sudoeste 0 -- -- 89
2017-12-05 02:00:00 -4.3 8 Sudoeste 15 Sudoeste 0 -- -- 88
2017-12-05 01:00:00 -3.3 10 Sudoeste 19 Sur 0 -- -- 87
2017-12-05 00:00:00 -3.2 13 Sudoeste 16 Sudoeste 0 -- -- 87
2017-12-04 23:00:00 -3 3 Sur 12 Oeste 0 -- -- 86
2017-12-04 22:00:00 -2.2 7 Sudoeste 13 Sudoeste 0 -- -- 86
2017-12-04 21:00:00 -1.6 6 Oeste 10 Sudoeste 0 -- -- 84
2017-12-04 20:00:00 -0.5 8 Sudoeste 12 Sudoeste 0 -- -- 79
2017-12-04 19:00:00 1.8 2 Oeste 14 Norte 0 -- -- 72
2017-12-04 18:00:00 5.3 9 Norte 13 Norte 0 -- -- 63
2017-12-04 17:00:00 7.4 7 Norte 14 Norte 0 -- -- 55
2017-12-04 16:00:00 7.9 8 Norte 24 Norte 0 -- -- 51
2017-12-04 15:00:00 7.8 12 Norte 19 Norte 0 -- -- 48
2017-12-04 14:00:00 6.9 11 Norte 21 Norte 0 -- -- 51
2017-12-04 13:00:00 5.7 7 Norte 14 Norte 0 -- -- 57
2017-12-04 12:00:00 4.3 4 Nordeste 8 Noroeste 0 -- -- 61
2017-12-04 11:00:00 1.2 4 Este 8 Oeste 0 -- -- 72
2017-12-04 10:00:00 -2.2 4 Sudeste 23 Sudoeste 0 -- -- 80
2017-12-04 09:00:00 -5.4 5 Sur 17 Sudoeste 0 -- -- 83
2017-12-04 08:00:00 -7.7 2 Sur 6 Sudeste 0 -- -- 86
2017-12-04 07:00:00 -6.8 3 Sudoeste 8 Este 0 -- -- 87
2017-12-04 06:00:00 -4.6 8 Oeste 15 Sudoeste 0 -- -- 84
2017-12-04 05:00:00 -5.1 11 Sudoeste 17 Sudoeste 0 -- -- 87
2017-12-04 04:00:00 -5.1 5 Oeste 12 Sudoeste 0 -- -- 85
2017-12-04 03:00:00 -5 8 Sudoeste 14 Sudoeste 0 -- -- 86
2017-12-04 02:00:00 -4 6 Sudoeste 15 Sudoeste 0 -- -- 81
2017-12-04 01:00:00 -4 9 Sudoeste 16 Sudoeste 0 -- -- 83
2017-12-04 00:00:00 -3.4 8 Sudoeste 16 Sudoeste 0 -- -- 80
2017-12-03 23:00:00 -2.9 9 Sudoeste 16 Oeste 0 -- -- 78
2017-12-03 22:00:00 -2.8 9 Sudoeste 13 Sudoeste 0 -- -- 79
2017-12-03 21:00:00 -2.4 5 Oeste 10 Oeste 0 -- -- 78
2017-12-03 20:00:00 -1.8 4 Sudoeste 8 Oeste 0 -- -- 75
2017-12-03 19:00:00 0.7 3 Este 13 Norte 0 -- -- 64
2017-12-03 18:00:00 2 8 Norte 17 Norte 0 -- -- 60
2017-12-03 17:00:00 4.1 10 Norte 24 Norte 0 -- -- 53
2017-12-03 16:00:00 4.9 9 Norte 22 Norte 0 -- -- 51
2017-12-03 15:00:00 5.2 10 Norte 22 Norte 0 -- -- 52
2017-12-03 14:00:00 4.9 12 Nordeste 26 Nordeste 0 -- -- 45
2017-12-03 13:00:00 4.6 12 Nordeste 23 Este 0 -- -- 44
2017-12-03 12:00:00 4 4 Sur 24 Este 0 -- -- 50
2017-12-03 11:00:00 2.3 12 Nordeste 22 Este 0 -- -- 55
2017-12-03 10:00:00 0.2 4 Nordeste 17 Nordeste 0 -- -- 71
2017-12-03 09:00:00 -0.9 10 Nordeste 20 Nordeste 0 -- -- 73
2017-12-03 08:00:00 -5.3 3 Sudoeste 9 Noroeste 0 -- -- 83
2017-12-03 07:00:00 -4.1 4 Noroeste 7 Noroeste 0 -- -- 86
2017-12-03 06:00:00 -4.7 5 Oeste 8 Sudoeste 0 -- -- 90
2017-12-03 05:00:00 -3.8 3 Noroeste 6 Noroeste 0 -- -- 90
2017-12-03 04:00:00 -3.8 4 Oeste 6 Oeste 0 -- -- 91
2017-12-03 03:00:00 -4.1 4 Oeste 6 Oeste 0 -- -- 91
2017-12-03 02:00:00 -4.3 5 Oeste 10 Oeste 0 -- -- 91
2017-12-03 01:00:00 -4.3 3 Noroeste 14 Este 0 -- -- 92
2017-12-03 00:00:00 -4.9 0 Calma 5 Oeste 0 -- -- 90
2017-12-02 23:00:00 -4.4 4 Sudoeste 6 Sudoeste 0 -- -- 89
2017-12-02 22:00:00 -3.8 3 Este 6 Este 0 -- -- 87
2017-12-02 21:00:00 -2.8 0 Calma 5 Oeste 0 -- -- 86
2017-12-02 20:00:00 -1.6 3 Sudoeste 5 Oeste 0 -- -- 83
2017-12-02 19:00:00 -0.6 2 Sudeste 5 Este 0 -- -- 78
2017-12-02 18:00:00 1.5 2 Nordeste 13 Norte 0 -- -- 69
2017-12-02 17:00:00 2.6 6 Norte 21 Noroeste 0 -- -- 64
2017-12-02 16:00:00 3 7 Norte 14 Nordeste 0 -- -- 63
2017-12-02 15:00:00 3.9 8 Nordeste 19 Noroeste 0 -- -- 60
2017-12-02 14:00:00 3.2 8 Nordeste 23 Nordeste 0 -- -- 63
2017-12-02 13:00:00 3.1 5 Nordeste 13 Norte 0 -- -- 64
2017-12-02 12:00:00 2 3 Oeste 5 Oeste 0 -- -- 67
2017-12-02 11:00:00 -1.5 2 Sur 5 Sur 0 -- -- 85
2017-12-02 10:00:00 -5.2 4 Sudoeste 7 Sudoeste 0 -- -- 90
2017-12-02 09:00:00 -7.9 4 Oeste 6 Oeste 0 -- -- 90
2017-12-02 08:00:00 -8.4 0 Calma 8 Sudoeste 0 -- -- 90
2017-12-02 07:00:00 -7.7 7 Sudoeste 10 Sudoeste 0 -- -- 90
2017-12-02 06:00:00 -7.5 6 Sudoeste 9 Oeste 0 -- -- 89
2017-12-02 05:00:00 -6.7 7 Sudoeste 12 Sudoeste 0 -- -- 89
2017-12-02 04:00:00 -6.4 5 Sudoeste 10 Sudoeste 0 -- -- 90
2017-12-02 03:00:00 -6 6 Oeste 9 Oeste 0 -- -- 92
2017-12-02 02:00:00 -5.9 0 Calma 8 Sudoeste 0 -- -- 90
2017-12-02 01:00:00 -4.9 2 Sudoeste 8 Sudeste 0 -- -- 92
2017-12-02 00:00:00 -4.8 3 Sudoeste 6 Sudoeste 0 -- -- 91
2017-12-01 23:00:00 -3.5 4 Sudoeste 6 Oeste 0 -- -- 92
2017-12-01 22:00:00 -3 3 Sudeste 5 Norte 0 -- -- 87
2017-12-01 21:00:00 -0.9 4 Este 14 Norte 0 -- -- 86
2017-12-01 20:00:00 -0.1 8 Norte 15 Norte 0 -- -- 88
2017-12-01 19:00:00 0.3 7 Norte 18 Norte 0 -- -- 89
2017-12-01 18:00:00 1.1 7 Norte 15 Norte 0 -- -- 87
2017-12-01 17:00:00 1.6 9 Norte 30 Nordeste 1.2 -- -- 90
2017-12-01 16:00:00 2.9 12 Norte 32 Norte 0.2 -- -- 85
2017-12-01 15:00:00 5.2 10 Noroeste 34 Noroeste 0 -- -- 74
2017-12-01 14:00:00 4.7 14 Noroeste 29 Norte 0 -- -- 73
2017-12-01 13:00:00 2.9 13 Norte 28 Norte 0 -- -- 81
2017-12-01 12:00:00 2 5 Norte 13 Norte 0 -- -- 83
2017-12-01 11:00:00 0.6 4 Este 10 Este 0 -- -- 79
2017-12-01 10:00:00 -2.5 2 Este 8 Sudeste 0 -- -- 88
2017-12-01 09:00:00 -7.5 2 Oeste 5 Oeste 0 -- -- 89
2017-12-01 08:00:00 -7.5 0 Calma 10 Norte 0 -- -- 90
2017-12-01 07:00:00 -7 5 Sudoeste 9 Sudoeste 0 -- -- 90
2017-12-01 06:00:00 -6.8 6 Sudoeste 13 Sudoeste 0 -- -- 90
2017-12-01 05:00:00 -6.4 3 Sudeste 10 Sudoeste 0 -- -- 88
2017-12-01 04:00:00 -6.1 3 Sudoeste 12 Sudoeste 0 -- -- 89
2017-12-01 03:00:00 -5.3 7 Sudoeste 13 Sudoeste 0 -- -- 88
2017-12-01 02:00:00 -5.4 5 Sudoeste 13 Sudoeste 0 -- -- 88
2017-12-01 01:00:00 -4.6 5 Sudoeste 13 Sudoeste 0 -- -- 87
2017-12-01 00:00:00 -4.3 5 Sudoeste 11 Sudoeste 0 -- -- 86
2017-11-30 23:00:00 -3.5 7 Sudoeste 12 Sudoeste 0 -- -- 85
2017-11-30 22:00:00 -2.9 9 Sudoeste 12 Oeste 0 -- -- 86
2017-11-30 21:00:00 -2.7 6 Sudoeste 8 Sudoeste 0 -- -- 84
2017-11-30 20:00:00 -1.6 2 Sudoeste 6 Sudoeste 0 -- -- 78
2017-11-30 19:00:00 0.2 2 Nordeste 10 Norte 0 -- -- 70
2017-11-30 18:00:00 2.6 6 Norte 19 Norte 0 -- -- 62
2017-11-30 17:00:00 4.6 10 Norte 25 Norte 0 -- -- 53
2017-11-30 16:00:00 5.4 13 Norte 28 Norte 0 -- -- 50
2017-11-30 15:00:00 5.4 12 Norte 27 Norte 0 -- -- 50
2017-11-30 14:00:00 4.8 13 Nordeste 35 Nordeste 0 -- -- 52
2017-11-30 13:00:00 4.8 13 Nordeste 28 Nordeste 0 -- -- 54
2017-11-30 12:00:00 3.3 5 Nordeste 11 Este 0 -- -- 66
2017-11-30 11:00:00 1.4 2 Sudoeste 4 Sudoeste 0.2 -- -- 75
2017-11-30 10:00:00 -3.1 4 Sudoeste 8 Sudoeste 0 -- -- 89
2017-11-30 09:00:00 -6.3 2 Sudoeste 9 Sudoeste 0 -- -- 93
2017-11-30 08:00:00 -6.6 0 Calma 4 Este 0 -- -- 92
2017-11-30 07:00:00 -5.7 3 Oeste 5 Oeste 0 -- -- 94
2017-11-30 06:00:00 -5.7 0 Calma 4 Noroeste 0 -- -- 93
2017-11-30 05:00:00 -5.1 0 Calma 8 Este 0 -- -- 92
2017-11-30 04:00:00 -4.4 0 Calma 5 Oeste 0 -- -- 93
2017-11-30 03:00:00 -4.4 2 Noroeste 5 Sudeste 0 -- -- 94
2017-11-30 02:00:00 -4.4 2 Sudoeste 4 Sudoeste 0 -- -- 92
2017-11-30 01:00:00 -3.5 4 Sudoeste 8 Este 0 -- -- 92
2017-11-30 00:00:00 -2.9 3 Sudoeste 6 Sudoeste 0 -- -- 92
2017-11-29 23:00:00 -2.5 4 Sudoeste 9 Sudoeste 0 -- -- 92
2017-11-29 22:00:00 -2 3 Sudoeste 8 Sudoeste 0 -- -- 91
2017-11-29 21:00:00 -1.2 2 Oeste 5 Sudoeste 0 -- -- 90
2017-11-29 20:00:00 -0.3 0 Calma 5 Noroeste 0 -- -- 85
2017-11-29 19:00:00 1.9 0 Calma 11 Norte 0 -- -- 77
2017-11-29 18:00:00 3.6 8 Nordeste 21 Nordeste 0 -- -- 69
2017-11-29 17:00:00 5 11 Nordeste 25 Norte 0 -- -- 64
2017-11-29 16:00:00 5.9 9 Nordeste 28 Nordeste 0 -- -- 61
2017-11-29 15:00:00 6.6 9 Nordeste 24 Norte 0 -- -- 62
2017-11-29 14:00:00 6.7 8 Norte 21 Norte 0 -- -- 67
2017-11-29 13:00:00 6.3 9 Norte 22 Norte 0 -- -- 75
2017-11-29 12:00:00 4.8 5 Norte 15 Norte 0 -- -- 88
2017-11-29 11:00:00 3.5 5 Norte 11 Nordeste 0 -- -- 94
2017-11-29 10:00:00 3 5 Nordeste 9 Nordeste 0 -- -- 91
2017-11-29 09:00:00 2.5 2 Sudoeste 8 Sur 0 -- -- 94
2017-11-29 08:00:00 3.2 0 Calma 18 Noroeste 0 -- -- 93
2017-11-29 07:00:00 2.9 13 Norte 26 Norte 0.2 -- -- 95
2017-11-29 06:00:00 5.1 3 Sudoeste 9 Sur 0 -- -- 92
2017-11-29 05:00:00 5.3 3 Sudoeste 6 Oeste 0 -- -- 93
2017-11-29 04:00:00 5.5 0 Calma 9 Norte 0 -- -- 91
2017-11-29 03:00:00 5.4 5 Norte 16 Nordeste 0 -- -- 91
2017-11-29 02:00:00 5.5 8 Nordeste 22 Norte 0 -- -- 91
2017-11-29 01:00:00 7 0 Calma 4 Este 0 -- -- 95
2017-11-29 00:00:00 7.3 2 Nordeste 4 Sudoeste 0 -- -- 95
2017-11-28 23:00:00 7.4 2 Oeste 8 Sudoeste 0 -- -- 95
2017-11-28 22:00:00 7.6 0 Calma 3 Sudoeste 0 -- -- 94
2017-11-28 21:00:00 7.9 0 Calma 9 Oeste 0.2 -- -- 94
2017-11-28 20:00:00 8.1 7 Oeste 10 Oeste 1.4 -- -- 95
2017-11-28 19:00:00 8.5 6 Oeste 10 Oeste 1.2 -- -- 92
2017-11-28 18:00:00 8.8 6 Oeste 19 Sudoeste 0.6 -- -- 91
2017-11-28 17:00:00 9.1 10 Sudoeste 22 Sudoeste 0.4 -- -- 90
2017-11-28 16:00:00 9.6 11 Oeste 19 Sudoeste 0.8 -- -- 89
2017-11-28 15:00:00 9.5 6 Oeste 18 Noroeste 0.4 -- -- 90
2017-11-28 14:00:00 9.5 10 Sudoeste 18 Sudoeste 0.8 -- -- 91
2017-11-28 13:00:00 9.2 5 Oeste 13 Oeste 0.8 -- -- 91
2017-11-28 12:00:00 8.3 0 Calma 8 Sudoeste 0 -- -- 92
2017-11-28 11:00:00 7 3 Sudoeste 5 Sudoeste 0 -- -- 91
2017-11-28 10:00:00 5.8 2 Oeste 4 Oeste 0 -- -- 88
2017-11-28 09:00:00 5.4 2 Oeste 4 Oeste 0 -- -- 82
2017-11-28 08:00:00 5.2 2 Oeste 9 Sudoeste 0 -- -- 78
2017-11-28 07:00:00 4.8 0 Calma 4 Sudoeste 0 -- -- 78
2017-11-28 06:00:00 4.9 0 Calma 4 Oeste 0 -- -- 75
2017-11-28 05:00:00 4.8 0 Calma 4 Noroeste 0 -- -- 70
2017-11-28 04:00:00 4.6 3 Oeste 12 Sudoeste 0 -- -- 69
2017-11-28 03:00:00 4.1 5 Sudoeste 10 Norte 0 -- -- 72
2017-11-28 02:00:00 4.7 5 Norte 10 Norte 0 -- -- 67
2017-11-28 01:00:00 4.9 2 Oeste 10 Este 0 -- -- 68
2017-11-28 00:00:00 5.3 3 Nordeste 10 Este 0 -- -- 64
2017-11-27 23:00:00 5.2 5 Sudoeste 8 Sudoeste 0 -- -- 66
2017-11-27 22:00:00 4.7 5 Sudoeste 7 Sudoeste 0 -- -- 70
2017-11-27 21:00:00 5.3 0 Calma 8 Nordeste 0 -- -- 60
2017-11-27 20:00:00 7 4 Nordeste 10 Oeste 0 -- -- 58
2017-11-27 19:00:00 7.6 7 Oeste 24 Sudoeste 0 -- -- 58
2017-11-27 18:00:00 9.2 11 Oeste 24 Sudoeste 0 -- -- 51
2017-11-27 17:00:00 11.5 8 Noroeste 15 Norte 0 -- -- 38
2017-11-27 16:00:00 14 7 Noroeste 15 Norte 0 -- -- 30
2017-11-27 15:00:00 13.7 8 Norte 17 Norte 0 -- -- 28
2017-11-27 14:00:00 13.9 3 Noroeste 8 Noroeste 0 -- -- 24
2017-11-27 13:00:00 11.4 0 Calma 6 Nordeste 0 -- -- 32
2017-11-27 12:00:00 7.9 4 Nordeste 6 Este 0.2 -- -- 41
2017-11-27 11:00:00 5.1 3 Este 12 Sudoeste 0.4 -- -- 61
2017-11-27 10:00:00 1.8 8 Sudoeste 12 Sudoeste 0 -- -- 67
2017-11-27 09:00:00 -1 0 Calma 12 Oeste 0 -- -- 77
2017-11-27 08:00:00 -1 7 Oeste 10 Sudoeste 0 -- -- 83
2017-11-27 07:00:00 -1.6 2 Sudoeste 7 Oeste 0 -- -- 79
2017-11-27 06:00:00 -1.1 4 Oeste 10 Sudoeste 0 -- -- 80
2017-11-27 05:00:00 -3.4 0 Calma 10 Sudoeste 0 -- -- 80
2017-11-27 04:00:00 -0.8 8 Sudoeste 15 Sudoeste 0 -- -- 74
2017-11-27 03:00:00 -1.7 7 Sudoeste 16 Sudoeste 0 -- -- 81
2017-11-27 02:00:00 -1.8 9 Sudoeste 15 Sudoeste 0 -- -- 85
2017-11-27 01:00:00 -1.4 10 Sudoeste 14 Sudoeste 0 -- -- 82
2017-11-27 00:00:00 -1.6 6 Sudoeste 13 Sudoeste 0 -- -- 85
2017-11-26 23:00:00 -1.5 5 Sudoeste 8 Sudoeste 0 -- -- 87
2017-11-26 22:00:00 -0.3 2 Sur 16 Oeste 0 -- -- 81
2017-11-26 21:00:00 1 6 Sudoeste 11 Oeste 0 -- -- 79
2017-11-26 20:00:00 2.2 3 Sudoeste 9 Sudoeste 0 -- -- 73
2017-11-26 19:00:00 3.7 6 Sudoeste 9 Sudoeste 0 -- -- 67
2017-11-26 18:00:00 7.4 3 Nordeste 18 Norte 0 -- -- 54
2017-11-26 17:00:00 10.2 8 Norte 21 Norte 0 -- -- 46
2017-11-26 16:00:00 11.6 10 Norte 21 Norte 0 -- -- 43
2017-11-26 15:00:00 11.7 10 Norte 18 Norte 0 -- -- 41
2017-11-26 14:00:00 10.8 9 Norte 19 Noroeste 0 -- -- 47
2017-11-26 13:00:00 9.6 10 Norte 22 Norte 0 -- -- 54
2017-11-26 12:00:00 9 2 Norte 9 Sudoeste 0 -- -- 57
2017-11-26 11:00:00 6 6 Sudoeste 10 Sudoeste 0 -- -- 70
2017-11-26 10:00:00 3 4 Sudoeste 18 Sudoeste 0 -- -- 92
2017-11-26 09:00:00 0.9 8 Sudoeste 19 Sudoeste 0 -- -- 90
2017-11-26 08:00:00 1.5 9 Sudoeste 19 Sur 0 -- -- 95
2017-11-26 07:00:00 0.5 0 Calma 3 Nordeste 0 -- -- 94
2017-11-26 06:00:00 0.8 2 Este 5 Norte 0 -- -- 92
2017-11-26 05:00:00 2.3 4 Nordeste 14 Norte 0 -- -- 91
2017-11-26 04:00:00 4.4 0 Calma 8 Norte 0 -- -- 88
2017-11-26 03:00:00 5.5 0 Calma 7 Nordeste 0 -- -- 87
2017-11-26 02:00:00 5.7 4 Norte 12 Nordeste 0 -- -- 88
2017-11-26 01:00:00 5.7 4 Este 11 Este 0 -- -- 89
2017-11-26 00:00:00 5.8 3 Norte 10 Norte 0 -- -- 88
2017-11-25 23:00:00 6.7 3 Nordeste 5 Este 0 -- -- 87
2017-11-25 22:00:00 8 0 Calma 6 Nordeste 0 -- -- 86
2017-11-25 21:00:00 8.2 2 Nordeste 12 Norte 0 -- -- 84
2017-11-25 20:00:00 8.1 5 Noroeste 15 Norte 0 -- -- 86
2017-11-25 19:00:00 8.3 9 Norte 22 Noroeste 0 -- -- 85
2017-11-25 18:00:00 9.1 10 Noroeste 19 Norte 0 -- -- 84
2017-11-25 17:00:00 10.1 12 Norte 22 Norte 0 -- -- 81
2017-11-25 16:00:00 10.4 11 Norte 22 Norte 0 -- -- 79
2017-11-25 15:00:00 10.6 10 Norte 22 Norte 0 -- -- 79
2017-11-25 14:00:00 10.7 9 Norte 23 Noroeste 0 -- -- 79
2017-11-25 13:00:00 11.6 13 Noroeste 21 Noroeste 0 -- -- 73
2017-11-25 12:00:00 12.6 9 Norte 20 Norte 0 -- -- 63
2017-11-25 11:00:00 9.4 3 Este 7 Sur 0 -- -- 70
2017-11-25 10:00:00 7.1 0 Calma 7 Oeste 0 -- -- 78
2017-11-25 09:00:00 6.3 0 Calma 11 Oeste 0 -- -- 80
2017-11-25 08:00:00 6.7 0 Calma 8 Oeste 0 -- -- 78
2017-11-25 07:00:00 7.9 0 Calma 10 Este 0 -- -- 73
2017-11-25 06:00:00 7 4 Sur 18 Sudoeste 0 -- -- 80
2017-11-25 05:00:00 8.3 7 Oeste 12 Noroeste 0 -- -- 73
2017-11-25 04:00:00 9.2 6 Noroeste 9 Norte 0 -- -- 72
2017-11-25 03:00:00 10.3 3 Oeste 27 Sudoeste 0 -- -- 71
2017-11-25 02:00:00 11.1 14 Sudoeste 29 Sudoeste 0 -- -- 63
2017-11-25 01:00:00 10.8 10 Sudoeste 25 Sur 0 -- -- 60
2017-11-25 00:00:00 11.2 15 Sudoeste 33 Sudoeste 0 -- -- 66
2017-11-24 23:00:00 11.1 15 Sudoeste 32 Sudoeste 0 -- -- 70
2017-11-24 22:00:00 10.7 13 Oeste 25 Oeste 0 -- -- 70
2017-11-24 21:00:00 11.1 17 Oeste 27 Sudoeste 0 -- -- 68
2017-11-24 20:00:00 10.8 10 Sudoeste 21 Sudoeste 0 -- -- 68
2017-11-24 19:00:00 11.4 14 Sudoeste 26 Sudoeste 0 -- -- 64
2017-11-24 18:00:00 11.8 17 Sudoeste 31 Sudoeste 0 -- -- 72
2017-11-24 17:00:00 13 19 Sudoeste 33 Oeste 0 -- -- 69
2017-11-24 16:00:00 12.9 16 Sudoeste 34 Oeste 0 -- -- 67
2017-11-24 15:00:00 13.2 18 Oeste 33 Sudoeste 0 -- -- 76
2017-11-24 14:00:00 13.3 19 Sudoeste 36 Sudoeste 0 -- -- 80
2017-11-24 13:00:00 11.3 18 Oeste 33 Sudoeste 0 -- -- 91
2017-11-24 12:00:00 11 13 Oeste 35 Sudoeste 0.2 -- -- 91
2017-11-24 11:00:00 11.2 19 Oeste 34 Sudoeste 0 -- -- 91
2017-11-24 10:00:00 10 21 Sudoeste 37 Sudoeste 0.2 -- -- 93
2017-11-24 09:00:00 10.3 21 Sudoeste 33 Oeste 0 -- -- 91
2017-11-24 08:00:00 10.3 18 Oeste 31 Oeste 0 -- -- 90
2017-11-24 07:00:00 10.5 11 Sudoeste 34 Oeste 0 -- -- 87
2017-11-24 06:00:00 10.3 20 Oeste 42 Oeste 0 -- -- 86
2017-11-24 05:00:00 10.2 23 Oeste 40 Sudoeste 0 -- -- 84
2017-11-24 04:00:00 9.7 26 Sudoeste 43 Sudoeste 0 -- -- 83
2017-11-24 03:00:00 9.1 32 Sudoeste 50 Sudoeste 0.2 -- -- 83
2017-11-24 02:00:00 8.8 31 Sudoeste 46 Sudoeste 0 -- -- 83
2017-11-24 01:00:00 9.5 26 Sudoeste 47 Sudoeste 0 -- -- 77
2017-11-24 00:00:00 8.9 36 Sudoeste 54 Sudoeste 0.2 -- -- 79
2017-11-23 23:00:00 9.2 21 Sudoeste 55 Sudoeste 0 -- -- 72
2017-11-23 22:00:00 13.1 18 Sudoeste 47 Sudoeste 0 -- -- 44
2017-11-23 21:00:00 11.5 19 Sudoeste 45 Sudoeste 0 -- -- 52
2017-11-23 20:00:00 13.6 17 Sudoeste 29 Sudoeste 0 -- -- 40
2017-11-23 19:00:00 12.8 13 Sudoeste 31 Sudoeste 0 -- -- 39
2017-11-23 18:00:00 13.3 15 Sudoeste 30 Sudoeste 0 -- -- 38
2017-11-23 17:00:00 14.7 12 Sudoeste 33 Sudoeste 0 -- -- 35
2017-11-23 16:00:00 15 16 Sudoeste 39 Sudoeste 0 -- -- 39
2017-11-23 15:00:00 15.8 24 Sudoeste 55 Sudoeste 0 -- -- 39
2017-11-23 14:00:00 14.5 27 Sudoeste 45 Sur 0 -- -- 45
2017-11-23 13:00:00 13.7 27 Sudoeste 46 Sudoeste 0 -- -- 51
2017-11-23 12:00:00 12.5 28 Sudoeste 48 Sudoeste 0 -- -- 60
2017-11-23 11:00:00 12.3 27 Sudoeste 44 Sudoeste 0 -- -- 62
2017-11-23 10:00:00 11.4 32 Sudoeste 45 Sudoeste 0 -- -- 65
2017-11-23 09:00:00 9.8 27 Sudoeste 41 Sudoeste 0 -- -- 66
2017-11-23 08:00:00 9.4 26 Sudoeste 41 Sudoeste 0 -- -- 63
2017-11-23 07:00:00 9.3 24 Sudoeste 40 Sudoeste 0 -- -- 59
2017-11-23 06:00:00 9.5 19 Sudoeste 32 Oeste 0 -- -- 55
2017-11-23 05:00:00 10.1 23 Oeste 37 Sudoeste 0 -- -- 51
2017-11-23 04:00:00 10.4 23 Sudoeste 37 Sudoeste 0 -- -- 50
2017-11-23 03:00:00 11.1 20 Oeste 36 Sudoeste 0 -- -- 48
2017-11-23 02:00:00 11.2 12 Sudoeste 30 Sudoeste 0 -- -- 48
2017-11-23 01:00:00 11.7 16 Sudoeste 30 Sudoeste 0 -- -- 44
2017-11-23 00:00:00 12.1 18 Sudoeste 35 Sudoeste 0 -- -- 41
2017-11-22 23:00:00 11.3 9 Sudoeste 23 Sudoeste 0 -- -- 43
2017-11-22 22:00:00 12.5 17 Sudoeste 32 Sudoeste 0 -- -- 38
2017-11-22 21:00:00 11.8 16 Sudoeste 39 Sudoeste 0 -- -- 39
2017-11-22 20:00:00 12.3 24 Sudoeste 39 Sudoeste 0 -- -- 37
2017-11-22 19:00:00 13 22 Sudoeste 36 Sudoeste 0 -- -- 35
2017-11-22 18:00:00 13 12 Sudoeste 23 Sudoeste 0 -- -- 37
2017-11-22 17:00:00 14.9 15 Oeste 39 Sudoeste 0 -- -- 33
2017-11-22 16:00:00 15.7 26 Sudoeste 40 Sudoeste 0 -- -- 32
2017-11-22 15:00:00 15.1 20 Sudoeste 34 Sudoeste 0 -- -- 34
2017-11-22 14:00:00 16.5 24 Sudoeste 39 Oeste 0 -- -- 31
2017-11-22 13:00:00 16.9 22 Sudoeste 38 Sudoeste 0 -- -- 30
2017-11-22 12:00:00 15.9 19 Sudoeste 32 Sudoeste 0 -- -- 31
2017-11-22 11:00:00 14 11 Sur 17 Sur 0 -- -- 36
2017-11-22 10:00:00 6.1 4 Oeste 13 Sudoeste 0 -- -- 54
2017-11-22 09:00:00 2.4 8 Oeste 13 Sudoeste 0 -- -- 58
2017-11-22 08:00:00 1.8 9 Oeste 15 Oeste 0 -- -- 58
2017-11-22 07:00:00 1.6 8 Oeste 14 Sudoeste 0 -- -- 57
2017-11-22 06:00:00 1 11 Sudoeste 17 Sudoeste 0 -- -- 60
2017-11-22 05:00:00 1.2 10 Oeste 17 Sudoeste 0 -- -- 59
2017-11-22 04:00:00 1 7 Sudoeste 15 Sudoeste 0 -- -- 59
2017-11-22 03:00:00 -1.2 5 Oeste 12 Oeste 0 -- -- 69
2017-11-22 02:00:00 1.1 8 Oeste 17 Sudoeste 0 -- -- 60
2017-11-22 01:00:00 2.1 7 Oeste 16 Oeste 0 -- -- 57
2017-11-22 00:00:00 2.6 9 Sudoeste 16 Oeste 0 -- -- 57
2017-11-21 23:00:00 2 9 Sudoeste 19 Sudoeste 0 -- -- 61
2017-11-21 22:00:00 2.4 4 Oeste 15 Sudoeste 0 -- -- 61
2017-11-21 21:00:00 4.6 9 Sudoeste 21 Sur 0 -- -- 57
2017-11-21 20:00:00 6.4 13 Sudoeste 18 Sudoeste 0 -- -- 51
2017-11-21 19:00:00 10.4 7 Sudoeste 16 Oeste 0 -- -- 42
2017-11-21 18:00:00 13.6 10 Noroeste 25 Oeste 0 -- -- 34
2017-11-21 17:00:00 16.4 11 Oeste 24 Oeste 0 -- -- 30
2017-11-21 16:00:00 16.9 17 Oeste 30 Oeste 0 -- -- 29
2017-11-21 15:00:00 17 19 Oeste 30 Sudoeste 0 -- -- 30
2017-11-21 14:00:00 17.2 18 Oeste 27 Oeste 0 -- -- 30
2017-11-21 13:00:00 15.3 8 Norte 15 Nordeste 0 -- -- 30
2017-11-21 12:00:00 12.9 3 Nordeste 8 Oeste 0 -- -- 32
2017-11-21 11:00:00 8.2 6 Sudoeste 14 Sudoeste 0 -- -- 41
2017-11-21 10:00:00 3.1 12 Sudoeste 15 Sudoeste 0 -- -- 53
2017-11-21 09:00:00 -1.3 7 Sudoeste 17 Sudoeste 0 -- -- 70
2017-11-21 08:00:00 -2.2 10 Sudoeste 15 Oeste 0 -- -- 70
2017-11-21 07:00:00 -1.2 10 Sudoeste 18 Sudoeste 0 -- -- 67
2017-11-21 06:00:00 -1.7 7 Sudoeste 16 Sudoeste 0 -- -- 70
2017-11-21 05:00:00 -1.4 10 Sudoeste 19 Sudoeste 0 -- -- 70
2017-11-21 04:00:00 -1.1 8 Sudoeste 16 Sudoeste 0 -- -- 68
2017-11-21 03:00:00 -0.4 10 Sudoeste 16 Oeste 0 -- -- 68
2017-11-21 02:00:00 0.1 13 Sudoeste 17 Sudoeste 0 -- -- 67
2017-11-21 01:00:00 -0.3 11 Sudoeste 15 Oeste 0 -- -- 71
2017-11-21 00:00:00 1.5 9 Sudoeste 15 Sudoeste 0 -- -- 65
2017-11-20 23:00:00 1.8 7 Sudoeste 16 Sudoeste 0 -- -- 65
2017-11-20 22:00:00 1.7 9 Sudoeste 15 Oeste 0 -- -- 66
2017-11-20 21:00:00 2.8 2 Este 9 Sudoeste 0 -- -- 62
2017-11-20 20:00:00 5.4 5 Sudoeste 9 Sudoeste 0 -- -- 53
2017-11-20 19:00:00 9.4 3 Sudoeste 21 Oeste 0 -- -- 42
2017-11-20 18:00:00 13.5 14 Oeste 23 Oeste 0 -- -- 35
2017-11-20 17:00:00 18.1 6 Oeste 13 Oeste 0 -- -- 26
2017-11-20 16:00:00 18.8 4 Nordeste 14 Norte 0 -- -- 19
2017-11-20 15:00:00 18.5 7 Norte 13 Norte 0 -- -- 20
2017-11-20 14:00:00 18.1 7 Noroeste 13 Norte 0 -- -- 21
2017-11-20 13:00:00 17.2 3 Nordeste 5 Nordeste 0 -- -- 23
2017-11-20 12:00:00 13.6 3 Sudoeste 9 Sudoeste 0 -- -- 30
2017-11-20 11:00:00 9.3 3 Sur 10 Sudoeste 0 -- -- 45
2017-11-20 10:00:00 3.2 2 Oeste 17 Sudoeste 0 -- -- 59
2017-11-20 09:00:00 -0.8 10 Sudoeste 17 Sudoeste 0 -- -- 70
2017-11-20 08:00:00 -2 7 Sudoeste 13 Sudoeste 0 -- -- 72
2017-11-20 07:00:00 -1.8 6 Oeste 13 Sudoeste 0 -- -- 71
2017-11-20 06:00:00 -1.9 8 Sudoeste 14 Sudoeste 0 -- -- 73
2017-11-20 05:00:00 -1.4 10 Sudoeste 15 Sudoeste 0 -- -- 72
2017-11-20 04:00:00 -0.3 8 Sudoeste 16 Sudoeste 0 -- -- 67
2017-11-20 03:00:00 -1 8 Sudoeste 19 Oeste 0 -- -- 71
2017-11-20 02:00:00 -0.7 7 Sudoeste 18 Sudoeste 0 -- -- 70
2017-11-20 01:00:00 1.3 12 Sudoeste 19 Sudoeste 0 -- -- 62
2017-11-20 00:00:00 0.8 9 Oeste 16 Sudoeste 0 -- -- 64
2017-11-19 23:00:00 1.4 12 Sudoeste 18 Sudoeste 0 -- -- 61
2017-11-19 22:00:00 1.7 7 Sudoeste 17 Sudoeste 0 -- -- 60
2017-11-19 21:00:00 2.9 11 Sudoeste 16 Sudoeste 0 -- -- 55
2017-11-19 20:00:00 5.7 7 Oeste 10 Oeste 0 -- -- 45
2017-11-19 19:00:00 8.3 3 Oeste 5 Oeste 0 -- -- 34
2017-11-19 18:00:00 13.8 4 Nordeste 12 Norte 0 -- -- 21
2017-11-19 17:00:00 16.4 9 Norte 18 Norte 0 -- -- 14
2017-11-19 16:00:00 17.6 10 Norte 18 Norte 0 -- -- 19
2017-11-19 15:00:00 17.9 6 Norte 21 Norte 0 -- -- 20
2017-11-19 14:00:00 17.3 8 Norte 19 Nordeste 0 -- -- 24
2017-11-19 13:00:00 16.2 5 Nordeste 10 Nordeste 0 -- -- 30
2017-11-19 12:00:00 13.3 2 Noroeste 6 Sudoeste 0 -- -- 42
2017-11-19 11:00:00 9.1 3 Este 12 Oeste 0 -- -- 55
2017-11-19 10:00:00 3.1 10 Sudoeste 15 Sudoeste 0 -- -- 72
2017-11-19 09:00:00 -0.2 9 Sudoeste 16 Oeste 0 -- -- 78
2017-11-19 08:00:00 -1.4 10 Sudoeste 15 Sudoeste 0 -- -- 85
2017-11-19 07:00:00 -1.2 10 Sudoeste 17 Sudoeste 0 -- -- 84
2017-11-19 06:00:00 -1 9 Sudoeste 13 Sudoeste 0 -- -- 85
2017-11-19 05:00:00 -0.9 7 Sudoeste 19 Sudoeste 0 -- -- 84
2017-11-19 04:00:00 -0.2 11 Sudoeste 24 Sudoeste 0 -- -- 85
2017-11-19 03:00:00 -0.6 12 Sudoeste 17 Sudoeste 0 -- -- 88
2017-11-19 02:00:00 0 12 Sudoeste 18 Sudoeste 0 -- -- 87
2017-11-19 01:00:00 0.9 8 Sudoeste 15 Sudoeste 0 -- -- 84
2017-11-19 00:00:00 0.9 4 Sudoeste 16 Sudoeste 0 -- -- 83
2017-11-18 23:00:00 2.3 11 Sudoeste 18 Sudoeste 0 -- -- 79
2017-11-18 22:00:00 3 11 Sudoeste 18 Sudoeste 0 -- -- 76
2017-11-18 21:00:00 4.3 13 Sudoeste 18 Sudoeste 0 -- -- 73
2017-11-18 20:00:00 5.8 4 Sudoeste 7 Sudoeste 0 -- -- 67
2017-11-18 19:00:00 8.7 2 Oeste 12 Norte 0 -- -- 55
2017-11-18 18:00:00 12.5 7 Norte 18 Norte 0 -- -- 45
2017-11-18 17:00:00 14.8 9 Noroeste 22 Noroeste 0 -- -- 40
2017-11-18 16:00:00 16.5 11 Norte 19 Norte 0 -- -- 37
2017-11-18 15:00:00 17 8 Norte 18 Norte 0 -- -- 35
2017-11-18 14:00:00 16.7 9 Norte 18 Norte 0 -- -- 36
2017-11-18 13:00:00 15.6 9 Norte 17 Norte 0 -- -- 36
2017-11-18 12:00:00 13.6 3 Este 6 Nordeste 0 -- -- 40
2017-11-18 11:00:00 9.7 3 Sudeste 12 Sudoeste 0 -- -- 53
2017-11-18 10:00:00 5.3 5 Sudoeste 12 Sudoeste 0 -- -- 66
2017-11-18 09:00:00 1.1 5 Sudoeste 17 Sudoeste 0 -- -- 78
2017-11-18 08:00:00 -0.7 7 Sudoeste 16 Sudoeste 0 -- -- 82
2017-11-18 07:00:00 -0.7 6 Sudoeste 10 Oeste 0 -- -- 83
2017-11-18 06:00:00 -0.2 4 Sudoeste 15 Sudoeste 0 -- -- 82
2017-11-18 05:00:00 -0.5 3 Sudoeste 13 Sudoeste 0 -- -- 83
2017-11-18 04:00:00 0.5 6 Sudoeste 18 Sudoeste 0 -- -- 80
2017-11-18 03:00:00 0.9 9 Sudoeste 18 Sudoeste 0 -- -- 78
2017-11-18 02:00:00 1.4 7 Sudoeste 18 Sudoeste 0 -- -- 76
2017-11-18 01:00:00 2.3 11 Sudoeste 15 Sudoeste 0 -- -- 74
2017-11-18 00:00:00 2.2 8 Sudoeste 16 Sudoeste 0 -- -- 73
2017-11-17 23:00:00 2.6 8 Sudoeste 15 Sudoeste 0 -- -- 74
2017-11-17 22:00:00 3.7 7 Sudoeste 12 Sudoeste 0 -- -- 69
2017-11-17 21:00:00 5.2 6 Sudoeste 9 Sudoeste 0 -- -- 63
2017-11-17 20:00:00 7.2 0 Calma 6 Sudoeste 0 -- -- 56
2017-11-17 19:00:00 11.2 0 Calma 17 Norte 0 -- -- 45
2017-11-17 18:00:00 14.8 8 Norte 17 Norte 0 -- -- 36
2017-11-17 17:00:00 17.1 6 Noroeste 17 Norte 0 -- -- 28
2017-11-17 16:00:00 18.9 6 Norte 16 Noroeste 0 -- -- 29
2017-11-17 15:00:00 18.8 6 Nordeste 15 Norte 0 -- -- 27
2017-11-17 14:00:00 17.7 8 Norte 14 Norte 0 -- -- 28
2017-11-17 13:00:00 16.8 4 Nordeste 9 Nordeste 0 -- -- 29
2017-11-17 12:00:00 13.9 4 Este 6 Nordeste 0 -- -- 40
2017-11-17 11:00:00 9.9 2 Sudeste 6 Sudoeste 0 -- -- 53
2017-11-17 10:00:00 4.6 5 Sudoeste 12 Oeste 0 -- -- 67
2017-11-17 09:00:00 -0.5 5 Sudoeste 13 Sudoeste 0 -- -- 82
2017-11-17 08:00:00 -0.9 8 Sudoeste 12 Sudoeste 0 -- -- 81
2017-11-17 07:00:00 -0.5 5 Sudoeste 12 Sudoeste 0 -- -- 78
2017-11-17 06:00:00 -0.1 9 Sudoeste 15 Sudoeste 0 -- -- 78
2017-11-17 05:00:00 0.4 8 Sudoeste 13 Oeste 0 -- -- 76
2017-11-17 04:00:00 0.6 11 Sudoeste 15 Sudoeste 0 -- -- 77
2017-11-17 03:00:00 0.6 11 Sudoeste 15 Sudoeste 0 -- -- 77
2017-11-17 02:00:00 0.9 9 Sudoeste 15 Sudoeste 0 -- -- 76
2017-11-17 01:00:00 2.4 11 Sudoeste 19 Sudoeste 0 -- -- 70
2017-11-17 00:00:00 2.2 12 Sudoeste 20 Sudoeste 0 -- -- 72
2017-11-16 23:00:00 2.6 8 Oeste 16 Sudoeste 0 -- -- 70
2017-11-16 22:00:00 3.1 12 Sudoeste 18 Sudoeste 0 -- -- 69
2017-11-16 21:00:00 4.3 6 Oeste 12 Sudoeste 0 -- -- 65
2017-11-16 20:00:00 6.6 7 Oeste 10 Oeste 0 -- -- 58
2017-11-16 19:00:00 9.8 5 Oeste 9 Este 0 -- -- 47
2017-11-16 18:00:00 13.7 5 Norte 14 Norte 0 -- -- 36
2017-11-16 17:00:00 16.9 10 Noroeste 16 Noroeste 0 -- -- 29
2017-11-16 16:00:00 18 8 Norte 17 Norte 0 -- -- 26
2017-11-16 15:00:00 18 7 Nordeste 21 Norte 0 -- -- 27
2017-11-16 14:00:00 17.2 9 Norte 19 Nordeste 0 -- -- 27
2017-11-16 13:00:00 15.8 9 Norte 15 Norte 0 -- -- 29
2017-11-16 12:00:00 13.2 0 Calma 7 Norte 0 -- -- 38
2017-11-16 11:00:00 8.8 2 Sudeste 5 Sudeste 0 -- -- 51
2017-11-16 10:00:00 3.3 0 Calma 12 Sudoeste 0 -- -- 70
2017-11-16 09:00:00 -0.7 7 Sudoeste 10 Sudoeste 0 -- -- 83
2017-11-16 08:00:00 -2.6 2 Sur 8 Sudoeste 0 -- -- 82
2017-11-16 07:00:00 -2 3 Sudoeste 8 Sudoeste 0 -- -- 84
2017-11-16 06:00:00 -1.1 5 Sudoeste 11 Sudoeste 0 -- -- 83
2017-11-16 05:00:00 -0.3 6 Oeste 12 Sudoeste 0 -- -- 80
2017-11-16 04:00:00 -0.3 9 Sudoeste 13 Sudoeste 0 -- -- 81
2017-11-16 03:00:00 -0.4 6 Sudoeste 12 Sudoeste 0 -- -- 82
2017-11-16 02:00:00 -0.4 5 Oeste 12 Sudoeste 0 -- -- 83
2017-11-16 01:00:00 0.3 8 Sudoeste 13 Sudoeste 0 -- -- 81
2017-11-16 00:00:00 0.8 5 Oeste 12 Sudoeste 0 -- -- 79
2017-11-15 23:00:00 1.6 8 Sudoeste 15 Sudoeste 0 -- -- 76
2017-11-15 22:00:00 2.5 10 Sudoeste 15 Sudoeste 0 -- -- 74
2017-11-15 21:00:00 3.3 6 Sudoeste 9 Oeste 0 -- -- 71
2017-11-15 20:00:00 5.4 4 Sudoeste 7 Sudoeste 0 -- -- 62
2017-11-15 19:00:00 8.1 2 Oeste 9 Norte 0 -- -- 53
2017-11-15 18:00:00 13.1 4 Norte 10 Norte 0 -- -- 37
2017-11-15 17:00:00 15.1 3 Norte 15 Norte 0 -- -- 33
2017-11-15 16:00:00 16 8 Nordeste 18 Noroeste 0 -- -- 31
2017-11-15 15:00:00 15.4 9 Nordeste 19 Norte 0 -- -- 31
2017-11-15 14:00:00 15.2 8 Norte 19 Norte 0 -- -- 33
2017-11-15 13:00:00 13.9 9 Norte 17 Norte 0 -- -- 37
2017-11-15 12:00:00 11.5 4 Nordeste 9 Nordeste 0 -- -- 43
2017-11-15 11:00:00 7.9 2 Este 5 Este 0 -- -- 56
2017-11-15 10:00:00 2.5 2 Sudoeste 4 Sudoeste 0 -- -- 77
2017-11-15 09:00:00 -1.5 4 Sudoeste 9 Sudoeste 0 -- -- 88
2017-11-15 08:00:00 -3.2 0 Calma 7 Sudoeste 0 -- -- 88
2017-11-15 07:00:00 -2.3 3 Sudoeste 9 Sudoeste 0 -- -- 87
2017-11-15 06:00:00 -2.3 2 Sur 10 Sudoeste 0 -- -- 85
2017-11-15 05:00:00 -2 6 Sudoeste 8 Sudoeste 0 -- -- 88
2017-11-15 04:00:00 -1.8 3 Este 10 Sudoeste 0 -- -- 82
2017-11-15 03:00:00 0 6 Sudoeste 13 Sudoeste 0 -- -- 84
2017-11-15 02:00:00 -0.9 3 Sur 13 Sudoeste 0 -- -- 82
2017-11-15 01:00:00 -0.6 3 Sudoeste 14 Sudoeste 0 -- -- 85
2017-11-15 00:00:00 0.3 11 Sudoeste 15 Sudoeste 0 -- -- 84